Alma, Michigan
Current Conditions -  °F | °C
As of 1:31 AM on Monday 24 Nov 2014 (Local Time) from KAMN Reporting Station
Moderate Rain Moderate Rain  
Wind Chill: 47°   Ceiling: 400
Heat Index: 49°   Visibility: 4mi
Dew Point: 48°   Wind: 5mph
Humidity: 99%   Direction: 130°SE
Pressure: 29.07"   Gusts: NA
Location:  43.38°N, 84.66°W
Report Text: KAMN 240631Z AUTO 13004KT 4SM RA OVC004 09/09 A2907 RMK AO2 T00930091
Loading
Personal Weather Stations






























Interactive Weather Map New forecast layout! Learn more

10-Day Weather Forecast

Advertisements
Track Severe Weather on mobile